• Join FlightAware (Why Join?)
  • Login
  • US Flag 
10:33AM EDT


 

Airport Tracker/Info


-or-


 

Live Flight TrackerFlight Track Log ✈ VOZ960 ✈ 19-Aug-2014 ✈ YBBN / BNE - YSSY / SYD

Flight Track Log - Related Links

Times and Time Zones

All times are in EDT time to prevent confusion due to time zone crossing. See the VOZ960 flight status page for this flight to view local times or setup timezone preferences in your user account.

Time Position Orientation Groundspeed Altitude Reporting Facility
EDT Latitude Longitude Course Direction KTS MPH feet Rate Location/Type
01:43AM -27.3971 153.1214 207° Southwest 149 171 300  Level FlightAware ADS-B (YBBN / BNE)
01:43AM -27.4065 153.1159 208° Southwest 147 169 1,000 2,460 Climbing FlightAware ADS-B (YBBN / BNE)
01:44AM -27.4160 153.1115 192° South 158 182 1,600 1,980 Climbing FlightAware ADS-B (YBBN / BNE)
01:44AM -27.4282 153.1126 166° South 187 215 2,000 1,980 Climbing FlightAware ADS-B (YBBN / BNE)
01:44AM -27.4417 153.1190 155° Southeast 215 247 2,600 2,880 Climbing FlightAware ADS-B (YBBN / BNE)
01:44AM -27.4552 153.1264 154° Southeast 225 259 3,500 3,660 Climbing FlightAware ADS-B (YBBN / BNE)
01:45AM -27.4708 153.1351 154° Southeast 229 264 4,500 3,960 Climbing FlightAware ADS-B (YBBN / BNE)
01:45AM -27.4851 153.1429 155° Southeast 230 265 5,500 3,780 Climbing FlightAware ADS-B (YBBN / BNE)
01:45AM -27.5007 153.1465 178° South 228 262 6,400 3,480 Climbing FlightAware ADS-B (YBBN / BNE)
01:45AM -27.5162 153.1441 192° South 233 268 7,300 2,700 Climbing FlightAware ADS-B (YBBN / BNE)
01:46AM -27.5333 153.1401 192° South 253 291 7,800 2,580 Climbing FlightAware ADS-B (YBBN / BNE)
01:46AM -27.5510 153.1357 193° South 259 298 8,600 3,600 Climbing FlightAware ADS-B (YBBN / BNE)
01:46AM -27.5684 153.1298 199° South 259 298 9,600 2,760 Climbing FlightAware ADS-B (YBBN / BNE)
01:47AM -27.6107 153.1133 200° South 297 342 10,900 2,160 Climbing FlightAware ADS-B (YBBN / BNE)
01:47AM -27.6529 153.0968 199° South 326 375 12,000 2,700 Climbing FlightAware ADS-B (YBBN / BNE)
01:48AM -27.6989 153.0790 199° South 336 387 13,700 3,060 Climbing FlightAware ADS-B (YBBN / BNE)
01:48AM -27.7455 153.0607 199° South 346 398 15,200 2,880 Climbing FlightAware ADS-B (YBBN / BNE)
01:48AM -27.7624 153.0541 200° South 341 392 15,800 3,120 Climbing FlightAware ADS-B (YTWB)
01:49AM -27.8217 153.0308 199° South 353 406 17,800 2,880 Climbing FlightAware ADS-B (YBBN / BNE)
01:50AM -27.8689 153.0120 200° South 363 418 19,100 2,580 Climbing FlightAware ADS-B (YBBN / BNE)
01:50AM -27.8789 153.0081 200° South 356 410 19,400 2,340 Climbing FlightAware ADS-B (YTWB)
01:51AM -27.9912 152.9637 200° South 380 437 22,100 2,400 Climbing FlightAware ADS-B (YTWB)
01:51AM -27.9947 152.9623 199° South 381 438 22,200 2,460 Climbing FlightAware ADS-B (YBBN / BNE)
01:51AM -28.0435 152.9431 200° South 385 443 23,400 2,460 Climbing FlightAware ADS-B (YTWB)
01:52AM -28.0956 152.9224 201° Southwest 385 443 24,700 2,400 Climbing FlightAware ADS-B (YBBN / BNE)
01:52AM -28.1449 152.9006 202° Southwest 386 444 25,800 1,740 Climbing FlightAware ADS-B (YBBN / BNE)
01:52AM -28.1518 152.8975 202° Southwest 387 445 25,900 1,800 Climbing FlightAware ADS-B (YTWB)
01:53AM -28.1948 152.8782 202° Southwest 384 442 26,700 2,100 Climbing FlightAware ADS-B (YTWB)
01:53AM -28.2102 152.8713 202° Southwest 393 452 26,900 1,500 Climbing FlightAware ADS-B (YTWB)
01:53AM -28.2499 152.8536 202° Southwest 399 459 27,500 1,620 Climbing FlightAware ADS-B (YBBN / BNE)
01:54AM -28.2931 152.8344 202° Southwest 399 459 28,200 1,560 Climbing FlightAware ADS-B (YTWB)
01:54AM -28.3000 152.8313 202° Southwest 403 464 28,300 1,680 Climbing FlightAware ADS-B (YBBN / BNE)
01:54AM -28.3545 152.8071 202° Southwest 406 467 29,200 1,560 Climbing FlightAware ADS-B (YBBN / BNE)
01:55AM -28.3797 152.7958 202° Southwest 407 468 29,500 1,500 Climbing FlightAware ADS-B (YTWB)
01:55AM -28.4094 152.7825 202° Southwest 411 473 30,000 1,620 Climbing FlightAware ADS-B (YBBN / BNE)
01:55AM -28.4279 152.7742 202° Southwest 412 474 30,300 1,560 Climbing FlightAware ADS-B (YTWB)
01:55AM -28.4601 152.7598 202° Southwest 413 475 30,800 1,620 Climbing FlightAware ADS-B (YBBN / BNE)
01:56AM -28.4799 152.7511 202° Southwest 412 474 31,200 1,800 Climbing FlightAware ADS-B (YTWB)
01:56AM -28.5146 152.7355 202° Southwest 412 474 31,700 1,740 Climbing FlightAware ADS-B (YBBN / BNE)
01:56AM -28.5678 152.7117 202° Southwest 411 473 32,500 1,260 Climbing FlightAware ADS-B (YBBN / BNE)
01:57AM -28.6242 152.6862 202° Southwest 417 480 33,000 1,140 Climbing FlightAware ADS-B (YBBN / BNE)
01:57AM -28.6773 152.6624 202° Southwest 417 480 33,700 1,500 Climbing FlightAware ADS-B (YBBN / BNE)
01:58AM -28.7337 152.6372 202° Southwest 415 478 34,600 1,560 Climbing FlightAware ADS-B (YBBN / BNE)
01:58AM -28.7886 152.6126 202° Southwest 412 474 35,300 1,380 Climbing FlightAware ADS-B (YBBN / BNE)
01:59AM -28.8404 152.5893 202° Southwest 410 472 36,000 1,200 Climbing FlightAware ADS-B (YBBN / BNE)
02:00AM -28.9215 152.5526 202° Southwest 411 473 36,800 1,020 Climbing FlightAware ADS-B (YBBN / BNE)
02:00AM -28.9688 152.5312 202° Southwest 412 474 37,300 900 Climbing FlightAware ADS-B (YBBN / BNE)
02:01AM -29.0282 152.5044 202° Southwest 413 475 37,700 900 Climbing FlightAware ADS-B (YBBN / BNE)
02:01AM -29.0899 152.4765 202° Southwest 413 475 38,300 900 Climbing FlightAware ADS-B (YBBN / BNE)
02:02AM -29.1447 152.4517 202° Southwest 413 475 38,700 900 Climbing FlightAware ADS-B (YBBN / BNE)
02:02AM -29.1984 152.4275 202° Southwest 410 472 39,200 960 Climbing FlightAware ADS-B (YBBN / BNE)
02:03AM -29.2501 152.4041 202° Southwest 408 470 39,700 780 Climbing FlightAware ADS-B (YBBN / BNE)
02:03AM -29.3033 152.3797 202° Southwest 405 466 40,000 240 Climbing FlightAware ADS-B (YBBN / BNE)
02:04AM -29.3566 152.3555 202° Southwest 407 468 40,000  Level FlightAware ADS-B (YBBN / BNE)
02:04AM -29.4096 152.3311 202° Southwest 408 470 40,000  Level FlightAware ADS-B (YBBN / BNE)
02:05AM -29.4603 152.3079 202° Southwest 410 472 40,000  Level FlightAware ADS-B (YBBN / BNE)
02:05AM -29.5157 152.2828 202° Southwest 410 472 40,000  Level FlightAware ADS-B (YBBN / BNE)
02:06AM -29.5678 152.2591 202° Southwest 409 471 40,000  Level FlightAware ADS-B (YBBN / BNE)
02:06AM -29.6216 152.2347 202° Southwest 408 470 40,000  Level FlightAware ADS-B (YBBN / BNE)
02:07AM -29.6712 152.2120 202° Southwest 407 468 40,000  Level FlightAware ADS-B (YBBN / BNE)
02:07AM -29.7264 152.1867 202° Southwest 408 470 40,000  Level FlightAware ADS-B (YBBN / BNE)
02:08AM -29.8055 152.1505 202° Southwest 409 471 40,000  Level FlightAware ADS-B (YBBN / BNE)
02:09AM -29.9467 152.0838 202° Southwest 411 473 40,000  Level Aus ATC (RADAR)
02:10AM -29.9819 152.0679 201° Southwest 412 474 40,000  Level Aus ATC (RADAR)
02:11AM -30.0963 152.0162 201° Southwest 412 474 40,000  Level Aus ATC (RADAR)
02:11AM -30.1312 151.9999 202° Southwest 409 471 40,000  Level Aus ATC (RADAR)
02:12AM -30.1923 151.9713 202° Southwest 407 468 40,000  Level Aus ATC (RADAR)
02:13AM -30.3415 151.9024 202° Southwest 409 471 40,000  Level Aus ATC (RADAR)
02:13AM -30.3679 151.8902 202° Southwest 409 471 40,000 60 Level Aus ATC (RADAR)
02:14AM -30.4645 151.8450 202° Southwest 410 472 40,100 60 Climbing Aus ATC (RADAR)
02:15AM -30.5262 151.8166 202° Southwest 410 472 40,100 -120 Level Aus ATC (RADAR)
02:16AM -30.6232 151.7712 202° Southwest 412 474 40,000 -120 Descending Aus ATC (RADAR)
02:16AM -30.6941 151.7380 202° Southwest 414 476 40,000  Level Aus ATC (RADAR)
02:17AM -30.8013 151.6878 202° Southwest 416 479 40,000  Level Aus ATC (RADAR)
02:18AM -30.9012 151.6416 202° Southwest 420 483 40,000  Level FlightAware ADS-B (YPLB)
02:19AM -30.9544 151.6160 202° Southwest 421 484 40,000  Level Aus ATC (RADAR)
02:19AM -30.9700 151.6092 202° Southwest 422 486 40,000 120 Level FlightAware ADS-B (YPLB)
02:20AM -31.0450 151.5735 202° Southwest 422 486 40,100  Climbing Aus ATC (RADAR)
02:20AM -31.0632 151.5654 202° Southwest 417 480 40,000 -120 Descending FlightAware ADS-B (YPLB)
02:21AM -31.1472 151.5258 202° Southwest 408 470 40,000  Level FlightAware ADS-B (YPLB)
02:21AM -31.2211 151.4908 202° Southwest 406 467 40,000  Level FlightAware ADS-B (YPLB)
02:22AM -31.2782 151.4638 202° Southwest 405 466 40,000  Level FlightAware ADS-B (YPLB)
02:23AM -31.3586 151.4256 202° Southwest 404 465 40,000  Level FlightAware ADS-B (YSSY / SYD)
02:23AM -31.3816 151.4147 201° Southwest 403 464 40,000  Level FlightAware ADS-B (YSSY / SYD)
02:24AM -31.4597 151.3720 213° Southwest 389 448 40,000  Level FlightAware ADS-B (YPLB)
02:24AM -31.5128 151.3122 233° Southwest 374 430 40,000  Level FlightAware ADS-B (YPLB)
02:25AM -31.5393 151.2526 250° West 368 423 40,000  Level FlightAware ADS-B (YSSY / SYD)
02:25AM -31.5564 151.1973 250° West 367 422 40,000  Level FlightAware ADS-B (YSSY / SYD)
02:26AM -31.5717 151.1479 250° West 366 421 40,000  Level FlightAware ADS-B (YPLB)
02:26AM -31.5564 151.1973 250° West 366 421 40,000  Level FlightAware ADS-B (YSSY / SYD)
02:27AM -31.5717 151.1479 250° West 368 423 40,000 60 Level FlightAware ADS-B (YPLB)
02:28AM -31.6340 150.9455 250° West 357 411 40,100 60 Climbing Aus ATC (RADAR)
02:28AM -31.6455 150.9079 250° West 356 410 40,100 -240 Level Aus ATC (RADAR)
02:28AM -31.6217 150.9861 250° West 367 422 40,000 -180 Descending FlightAware ADS-B (YSSY / SYD)
02:29AM -31.6685 150.8413 231° Southwest 376 433 40,000  Level FlightAware ADS-B (YSSY / SYD)
02:29AM -31.6946 150.8076 217° Southwest 385 443 40,000  Level FlightAware ADS-B (YSSY / SYD)
02:29AM -31.7109 150.7960 201° Southwest 401 461 40,000  Level FlightAware ADS-B (YSSY / SYD)
02:30AM -31.7476 150.7840 191° South 410 472 40,000 -660 Level FlightAware ADS-B (YSSY / SYD)
02:30AM -31.7746 150.7850 173° South 428 493 39,700 -2,580 Descending FlightAware ADS-B (YSSY / SYD)
02:30AM -31.8380 150.7959 171° South 443 510 38,100 -2,820 Descending FlightAware ADS-B (YSSY / SYD)
02:31AM -31.8961 150.8064 171° South 448 516 36,800 -1,860 Descending FlightAware ADS-B (YSSY / SYD)
02:31AM -31.9789 150.8212 171° South 431 496 35,900 -1,080 Descending FlightAware ADS-B (YSSY / SYD)
02:32AM -32.0129 150.8273 171° South 417 480 35,800 -360 Descending FlightAware ADS-B (YPLB)
02:32AM -32.0569 150.8348 172° South 387 445 35,600 -780 Descending FlightAware ADS-B (YSSY / SYD)
02:33AM -32.1264 150.8464 172° South 375 432 35,000 -1,440 Descending FlightAware ADS-B (YSSY / SYD)
02:33AM -32.1405 150.8488 172° South 370 426 34,500 -1,680 Descending FlightAware ADS-B (YSSY / SYD)
02:33AM -32.1896 150.8571 171° South 367 422 34,000 -1,500 Descending FlightAware ADS-B (YPLB)
02:34AM -32.2460 150.8673 171° South 359 413 33,100 -1,440 Descending FlightAware ADS-B (YSSY / SYD)
02:35AM -32.3007 150.8770 172° South 351 404 32,400 -1,440 Descending FlightAware ADS-B (YSSY / SYD)
02:35AM -32.3536 150.8865 171° South 343 395 31,600 -1,320 Descending FlightAware ADS-B (YSSY / SYD)
02:36AM -32.3692 150.8893 171° South 333 383 31,000 -1,200 Descending FlightAware ADS-B (YSSY / SYD)
02:36AM -32.4485 150.9038 171° South 322 371 30,400 -1,140 Descending FlightAware ADS-B (YSSY / SYD)
02:37AM -32.4898 150.9111 172° South 312 359 29,900 -1,080 Descending FlightAware ADS-B (YSSY / SYD)
02:37AM -32.5044 150.9136 171° South 308 354 29,700 -1,200 Descending FlightAware ADS-B (YPLB)
02:37AM -32.5450 150.9207 172° South 302 348 29,100 -1,320 Descending FlightAware ADS-B (YSSY / SYD)
02:38AM -32.5883 150.9282 172° South 296 341 28,400 -1,500 Descending FlightAware ADS-B (YSSY / SYD)
02:38AM -32.6147 150.9328 171° South 294 338 27,900 -1,500 Descending FlightAware ADS-B (YPLB)
02:38AM -32.6446 150.9380 172° South 293 337 27,400 -1,440 Descending FlightAware ADS-B (YRAY)
02:39AM -32.6558 150.9400 172° South 293 337 27,200 -1,620 Descending FlightAware ADS-B (YRAY)
02:39AM -32.6959 150.9473 171° South 292 336 26,400 -1,440 Descending FlightAware ADS-B (YPLB)
02:40AM -32.7490 150.9570 171° South 288 331 25,500 -1,380 Descending FlightAware ADS-B (YSSY / SYD)
02:40AM -32.7892 150.9641 172° South 285 328 24,800 -1,440 Descending FlightAware ADS-B (YSSY / SYD)
02:41AM -32.8161 150.9687 172° South 284 327 24,300 -1,320 Descending FlightAware ADS-B (YSBK / BWU)
02:41AM -32.8256 150.9704 171° South 283 326 24,200 -1,380 Descending FlightAware ADS-B (YPLB)
02:41AM -32.8646 150.9774 172° South 279 321 23,500 -1,380 Descending FlightAware ADS-B (YRAY)
02:42AM -32.9014 150.9838 172° South 276 318 22,800 -1,500 Descending FlightAware ADS-B (YSSY / SYD)
02:42AM -32.9394 150.9905 172° South 279 321 22,000 -1,500 Descending FlightAware ADS-B (YSSY / SYD)
02:43AM -32.9818 150.9982 171° South 280 322 21,300 -1,380 Descending FlightAware ADS-B (YSSY / SYD)
02:43AM -33.0222 151.0053 172° South 278 320 20,600 -1,260 Descending FlightAware ADS-B (YRAY)
02:44AM -33.0619 151.0125 172° South 271 312 20,000 -1,080 Descending FlightAware ADS-B (YSSY / SYD)
02:44AM -33.0987 151.0190 171° South 264 304 19,500 -1,020 Descending FlightAware ADS-B (YSSY / SYD)
02:45AM -33.1373 151.0260 172° South 256 295 19,000 -1,080 Descending FlightAware ADS-B (YSSY / SYD)
02:45AM -33.1737 151.0325 172° South 251 289 18,400 -1,200 Descending FlightAware ADS-B (YXSG)
02:46AM -33.1906 151.0354 171° South 242 278 18,100 -1,500 Descending FlightAware ADS-B (YRAY)
02:46AM -33.2274 151.0423 171° South 251 289 17,200 -1,740 Descending FlightAware ADS-B (YSSY / SYD)
02:46AM -33.2343 151.0437 170° South 256 295 17,000 -2,400 Descending FlightAware ADS-B (YPLB)
02:47AM -33.2577 151.0483 170° South 263 303 16,200 -1,920 Descending FlightAware ADS-B (YPLB)
02:47AM -33.2966 151.0557 172° South 260 299 15,300 -1,680 Descending FlightAware ADS-B (YSSY / SYD)
02:48AM -33.3326 151.0620 171° South 259 298 14,400 -1,560 Descending FlightAware ADS-B (YSSY / SYD)
02:48AM -33.3536 151.0659 170° South 258 297 14,100 -1,260 Descending FlightAware ADS-B (YPLB)
02:48AM -33.3693 151.0690 170° South 254 292 13,800 -1,440 Descending FlightAware ADS-B (YPLB)
02:49AM -33.3994 151.0732 184° South 248 285 13,200 -1,200 Descending FlightAware ADS-B (YSSY / SYD)
02:49AM -33.4005 151.0731 183° South 247 284 13,200 -1,500 Level FlightAware ADS-B (YPLB)
02:49AM -33.4122 151.0699 196° South 247 284 12,900 -1,740 Descending FlightAware ADS-B (YSBK / BWU)
02:49AM -33.4279 151.0668 184° South 246 283 12,600 -1,320 Descending FlightAware ADS-B (YRAY)
02:49AM -33.4499 151.0657 183° South 240 276 12,200 -1,320 Descending FlightAware ADS-B (YPLB)
02:49AM -33.4527 151.0654 185° South 241 277 12,100 -1,740 Descending FlightAware ADS-B (YRAY)
02:50AM -33.4732 151.0644 180° South 242 278 11,600 -1,500 Descending FlightAware ADS-B (YSSY / SYD)
02:50AM -33.4933 151.0666 171° South 241 277 11,200 -1,320 Descending FlightAware ADS-B (YPLB)
02:50AM -33.5166 151.0736 162° South 234 269 10,700 -1,380 Descending FlightAware ADS-B (YXSG)
02:50AM -33.5231 151.0761 161° South 232 267 10,600 -960 Descending FlightAware ADS-B (YSBK / BWU)
02:51AM -33.5374 151.0822 160° South 223 257 10,400 -1,320 Descending FlightAware ADS-B (YRAY)
02:51AM -33.5584 151.0899 166° South 227 261 9,800 -1,500 Descending FlightAware ADS-B (YXSG)
02:51AM -33.5662 151.0922 166° South 228 262 9,700 -1,320 Descending FlightAware ADS-B (YPLB)
02:51AM -33.5832 151.0958 172° South 227 261 9,300 -1,620 Descending FlightAware ADS-B (YRAY)
02:52AM -33.5874 151.0965 172° South 226 260 9,200 -1,500 Descending FlightAware ADS-B (YPLB)
02:52AM -33.5995 151.0981 174° South 219 252 8,800 -1,140 Descending FlightAware ADS-B (YSBK / BWU)
02:52AM -33.6136 151.1000 172° South 209 241 8,700 -960 Descending FlightAware ADS-B (YRAY)
02:52AM -33.6273 151.1029 168° South 216 249 8,400 -1,560 Descending FlightAware ADS-B (YSSY / SYD)
02:52AM -33.6454 151.1084 164° South 214 246 7,900 -1,860 Descending FlightAware ADS-B (YSBK / BWU)
02:53AM -33.6598 151.1136 164° South 211 243 7,400 -1,740 Descending FlightAware ADS-B (YSSY / SYD)
02:53AM -33.6714 151.1184 153° Southeast 202 232 7,000 -2,100 Descending FlightAware ADS-B (YSSY / SYD)
02:53AM -33.6771 151.1233 142° Southeast 200 230 6,700 -2,040 Descending FlightAware ADS-B (YSBK / BWU)
02:53AM -33.6796 151.1266 131° Southeast 201 231 6,700 -1,200 Level FlightAware ADS-B (YRAY)
02:53AM -33.6821 151.1316 120° Southeast 203 234 6,500 -1,680 Descending FlightAware ADS-B (YSSY / SYD)
02:54AM -33.6884 151.1481 114° Southeast 197 227 6,100 -1,980 Descending FlightAware ADS-B (YSSY / SYD)
02:54AM -33.6922 151.1585 113° Southeast 189 217 5,500 -2,280 Descending FlightAware ADS-B (YSSY / SYD)
02:54AM -33.6970 151.1722 113° Southeast 188 216 5,100 -3,000 Descending FlightAware ADS-B (YSSY / SYD)
02:54AM -33.7003 151.1815 118° Southeast 181 208 4,600 -2,340 Descending FlightAware ADS-B (YSBK / BWU)
02:54AM -33.7046 151.1890 136° Southeast 171 197 4,400 -840 Descending FlightAware ADS-B (YSSY / SYD)
02:54AM -33.7072 151.1914 137° Southeast 169 194 4,400 -1,380 Level FlightAware ADS-B (YPLB)
02:54AM -33.7113 151.1936 160° South 159 183 4,200 -2,040 Descending FlightAware ADS-B (YRAY)
02:55AM -33.7156 151.1944 177° South 154 177 4,000 -1,860 Descending FlightAware ADS-B (YSSY / SYD)
02:55AM -33.7207 151.1932 197° South 151 174 3,800 -1,500 Descending FlightAware ADS-B (YRAY)
02:55AM -33.7248 151.1903 216° Southwest 153 176 3,600 -1,020 Descending FlightAware ADS-B (YSSY / SYD)
02:55AM -33.7337 151.1818 219° Southwest 144 166 3,400 -1,020 Descending FlightAware ADS-B (YSSY / SYD)
02:55AM -33.7395 151.1761 219° Southwest 135 155 3,100 -900 Descending FlightAware ADS-B (YSSY / SYD)
02:56AM -33.7470 151.1688 219° Southwest 130 150 3,000 -600 Descending FlightAware ADS-B (YSSY / SYD)
02:56AM -33.7510 151.1660 204° Southwest 127 146 2,900 -660 Descending FlightAware ADS-B (YRAY)
02:56AM -33.7629 151.1620 196° South 117 135 2,700 -600 Descending FlightAware ADS-B (YRAY)
02:56AM -33.7693 151.1600 195° South 124 143 2,600 -300 Descending FlightAware ADS-B (YSBK / BWU)
02:56AM -33.7741 151.1585 195° South 117 135 2,600 -480 Level FlightAware ADS-B (YRAY)
02:56AM -33.7765 151.1579 195° South 125 144 2,500 -720 Descending FlightAware ADS-B (YSBK / BWU)
02:57AM -33.7839 151.1555 194° South 126 145 2,400 -480 Descending FlightAware ADS-B (YSSY / SYD)
02:57AM -33.7916 151.1532 194° South 126 145 2,300 -360 Descending FlightAware ADS-B (YSBK / BWU)
02:57AM -33.7942 151.1525 182° South 127 146 2,300 -600 Level FlightAware ADS-B (YRAY)
02:57AM -33.7921 151.1530 182° South 127 146 2,200 -480 Descending FlightAware ADS-B (YXSG)
02:57AM -33.8100 151.1528 179° South 127 146 2,100 -180 Descending FlightAware ADS-B (YSSY / SYD)
02:58AM -33.8155 151.1534 171° South 130 150 2,100  Level FlightAware ADS-B (YSSY / SYD)
02:58AM -33.8326 151.1575 166° South 131 151 2,100 -180 Level FlightAware ADS-B (YPLB)
02:58AM -33.8415 151.1601 167° South 133 153 2,000 -420 Descending FlightAware ADS-B (YSSY / SYD)
02:59AM -33.8506 151.1627 167° South 134 154 1,900 -540 Descending FlightAware ADS-B (YSSY / SYD)
02:59AM -33.8618 151.1656 168° South 134 154 1,700 -720 Descending FlightAware ADS-B (YRPA)
02:59AM -33.8713 151.1680 168° South 128 147 1,500 -720 Descending FlightAware ADS-B (YXSG)
02:59AM -33.8823 151.1709 168° South 126 145 1,300 -720 Descending FlightAware ADS-B (YXSG)
03:00AM -33.8917 151.1732 168° South 129 148 1,100 -720 Descending FlightAware ADS-B (YPLB)
03:00AM -33.9073 151.1774 168° South 136 157 800 -780 Descending FlightAware ADS-B (YRAY)
03:00AM -33.9209 151.1810 167° South 136 157 500 -780 Descending FlightAware ADS-B (YRAY)
03:01AM -33.9339 151.1842 167° South 134 154 300 -600 Descending FlightAware ADS-B (YRAY)